»·PEaware :: N360TX KOTH-KEUG

N360TX :: KOTH-KEUG

FLIGHT INFORMATION

Flight Status: Arrived
Operator: Privately registered:
United States
More flights under this callsign
Pilot: Russell E. (6054)
Aircraft: CESSNA 182 SKYLANE
(C182)
More flights by this aircraft type
Origin: KOTH North Bend Mun
United States
Destination: KEUG Mahlon Sweet
United States
More flights between these airports :: More routes between these airports
Route: +OTH6 OTH V121 EUG
File this flight plan on PilotEdge
Remarks:
Altitude:
(Current/Filed)
7,000ft
Speed:
(Current/Filed)
125kts
Departed: 22-Aug-18 08:27 AM
Arrived: 22-Aug-18 09:17 AM
Distance/Time
Traveled:
62nm/0:50
Distance/Time
To Go:
Arrived

Flight Plot

Page will automatically refresh every two minutes.

Flight plan parsing failed; only flown route is shown


Map Options




Map Legend


Flown Route
Filed Route
Departure Airport
Arrival Airport
Navaid (VOR, NDB)
Fix

Horizontal Profiles

Position Reports

Time Latitude Longitude Heading Altitude Ground
Speed
22-Aug-18 08:11 43.411881 -124.242933 240 20ft 0kts
22-Aug-18 08:12 43.411881 -124.242934 240 20ft 0kts
22-Aug-18 08:13 43.411880 -124.242936 240 20ft 0kts
22-Aug-18 08:14 43.411880 -124.242937 240 20ft 0kts
22-Aug-18 08:15 43.411879 -124.242938 240 20ft 0kts
22-Aug-18 08:16 43.411879 -124.242940 240 20ft 0kts
22-Aug-18 08:17 43.411878 -124.242941 240 20ft 0kts
22-Aug-18 08:18 43.411877 -124.242943 240 20ft 0kts
22-Aug-18 08:19 43.411877 -124.242944 240 20ft 0kts
22-Aug-18 08:20 43.411876 -124.242945 240 20ft 0kts
22-Aug-18 08:21 43.411876 -124.242947 240 20ft 0kts
22-Aug-18 08:22 43.411875 -124.242948 240 20ft 0kts
22-Aug-18 08:23 43.411875 -124.242950 240 20ft 0kts
22-Aug-18 08:24 43.411874 -124.242951 240 20ft 0kts
22-Aug-18 08:25 43.413944 -124.243148 325 20ft 35kts
22-Aug-18 08:26 43.419190 -124.247390 293 20ft 0kts
22-Aug-18 08:27 43.419274 -124.246766 48 20ft 0kts
22-Aug-18 08:28 43.414484 -124.241965 148 61ft 87kts
22-Aug-18 08:29 43.391726 -124.246287 253 1270ft 86kts
22-Aug-18 08:30 43.409571 -124.289746 297 945ft 133kts
22-Aug-18 08:31 43.413280 -124.333689 269 1745ft 110kts
22-Aug-18 08:32 43.420186 -124.371229 339 2537ft 104kts
22-Aug-18 08:33 43.442880 -124.353599 42 3341ft 95kts
22-Aug-18 08:34 43.457242 -124.326517 98 4138ft 86kts
22-Aug-18 08:35 43.445077 -124.301072 121 4932ft 70kts
22-Aug-18 08:36 43.436001 -124.276534 137 5368ft 59kts
22-Aug-18 08:37 43.413693 -124.249183 172 4840ft 164kts
22-Aug-18 08:38 43.389424 -124.232608 121 5788ft 81kts
22-Aug-18 08:39 43.371562 -124.194185 93 5944ft 132kts
22-Aug-18 08:40 43.397983 -124.174341 358 6408ft 122kts
22-Aug-18 08:41 43.427345 -124.152803 41 6896ft 121kts
22-Aug-18 08:42 43.453360 -124.118578 42 7002ft 133kts
22-Aug-18 08:43 43.480915 -124.082151 42 6994ft 146kts
22-Aug-18 08:44 43.509623 -124.044149 42 6984ft 136kts
22-Aug-18 08:45 43.536792 -124.008172 42 6988ft 134kts
22-Aug-18 08:46 43.563873 -123.972256 42 6987ft 135kts
22-Aug-18 08:47 43.591161 -123.935969 42 6991ft 139kts
22-Aug-18 08:48 43.619652 -123.898066 42 6980ft 145kts
22-Aug-18 08:49 43.647906 -123.860450 42 6963ft 136kts
22-Aug-18 08:50 43.674979 -123.824383 42 6973ft 135kts
22-Aug-18 08:51 43.702728 -123.787342 42 6983ft 144kts
22-Aug-18 08:52 43.729905 -123.750984 42 6971ft 145kts
22-Aug-18 08:53 43.759838 -123.710884 42 6958ft 136kts
22-Aug-18 08:54 43.786952 -123.674547 42 6966ft 134kts
22-Aug-18 08:55 43.813741 -123.638588 42 6964ft 135kts
22-Aug-18 08:56 43.840721 -123.602313 42 6961ft 135kts
22-Aug-18 08:57 43.868770 -123.564553 42 6456ft 152kts
22-Aug-18 08:58 43.899635 -123.522905 43 5554ft 151kts
22-Aug-18 08:59 43.929505 -123.482581 43 5045ft 151kts
22-Aug-18 09:00 43.958368 -123.443562 43 4990ft 142kts
22-Aug-18 09:01 43.980837 -123.413158 43 4990ft 141kts
22-Aug-18 09:02 44.015894 -123.365679 44 4558ft 154kts
22-Aug-18 09:03 44.047137 -123.323971 32 3862ft 155kts
22-Aug-18 09:04 44.088070 -123.306920 15 3155ft 151kts
22-Aug-18 09:05 44.126458 -123.294220 349 2974ft 133kts
22-Aug-18 09:06 44.159469 -123.306094 5 2983ft 127kts
22-Aug-18 09:07 44.194388 -123.300576 6 2979ft 125kts
22-Aug-18 09:08 44.231224 -123.294678 6 3008ft 147kts
22-Aug-18 09:09 44.272927 -123.288038 6 2998ft 151kts
22-Aug-18 09:10 44.315051 -123.281047 12 2996ft 152kts
22-Aug-18 09:11 44.314521 -123.242491 145 3002ft 124kts
22-Aug-18 09:12 44.284755 -123.221927 178 3002ft 121kts
22-Aug-18 09:13 44.249588 -123.216429 202 2458ft 140kts
22-Aug-18 09:14 44.216430 -123.220639 177 1998ft 98kts
22-Aug-18 09:15 44.189111 -123.219883 180 1546ft 95kts
22-Aug-18 09:16 44.163342 -123.219558 180 1012ft 90kts
22-Aug-18 09:17 44.139071 -123.218851 181 490ft 75kts
22-Aug-18 09:18 44.125535 -123.218525 141 372ft 23kts
22-Aug-18 09:19 44.123263 -123.217163 180 372ft 32kts
22-Aug-18 09:20 44.120900 -123.213175 98 372ft 0kts

Navigation Log

Ident Type
Flight plan parsing failed, navigation log unavailable